createdAt,value
2022-08-17T00:00:35.041Z,88.48
2022-08-17T00:03:06.724Z,88.90
2022-08-17T00:05:37.636Z,88.74
2022-08-17T00:08:07.060Z,89.13
2022-08-17T00:10:35.695Z,87.40
2022-08-17T00:13:08.083Z,86.65
2022-08-17T00:15:36.459Z,87.89
2022-08-17T00:18:53.770Z,88.11
2022-08-17T00:20:53.232Z,88.46
2022-08-17T00:23:23.277Z,88.43
2022-08-17T00:25:51.830Z,87.57
2022-08-17T00:28:21.022Z,87.37
2022-08-17T00:30:51.360Z,86.72
2022-08-17T00:33:24.217Z,86.31
2022-08-17T00:35:52.973Z,86.08
2022-08-17T00:38:22.849Z,86.13
2022-08-17T00:40:55.777Z,87.48
2022-08-17T00:43:32.192Z,87.50
2022-08-17T00:46:01.936Z,88.01
2022-08-17T00:48:30.852Z,88.09
2022-08-17T00:51:09.605Z,87.49
2022-08-17T00:53:41.989Z,88.79
2022-08-17T00:56:14.847Z,88.51
2022-08-17T00:58:43.296Z,88.17
2022-08-17T01:01:21.419Z,88.25
2022-08-17T01:03:51.891Z,88.28
2022-08-17T01:06:20.792Z,88.84
2022-08-17T01:08:57.569Z,89.32
2022-08-17T01:11:26.064Z,89.71
2022-08-17T01:13:54.518Z,89.60
2022-08-17T01:16:25.599Z,89.11
2022-08-17T01:18:56.529Z,88.97
2022-08-17T01:21:30.751Z,89.18
2022-08-17T01:24:01.220Z,89.46
2022-08-17T01:26:30.955Z,88.97
2022-08-17T01:28:59.225Z,89.00
2022-08-17T01:31:32.015Z,89.19
2022-08-17T01:34:02.635Z,89.50
2022-08-17T01:36:30.701Z,88.86
2022-08-17T01:39:00.232Z,89.05
2022-08-17T01:41:29.515Z,90.42
2022-08-17T01:44:03.210Z,90.52
2022-08-17T01:46:32.361Z,91.12
2022-08-17T01:49:01.737Z,90.90
2022-08-17T01:51:33.027Z,90.21
2022-08-17T01:54:06.294Z,89.37
2022-08-17T01:56:36.237Z,90.28
2022-08-17T01:59:04.705Z,91.04
2022-08-17T02:01:34.930Z,91.37
2022-08-17T02:04:04.162Z,91.61
2022-08-17T02:06:53.765Z,91.78
2022-08-17T02:09:25.432Z,91.30
2022-08-17T02:11:54.330Z,91.55
2022-08-17T02:14:22.827Z,90.93
2022-08-17T02:16:51.263Z,90.11
2022-08-17T02:19:19.805Z,89.64
2022-08-17T02:21:50.799Z,90.15
2022-08-17T02:24:58.534Z,89.89
2022-08-17T02:27:11.552Z,90.17
2022-08-17T02:29:39.624Z,89.90
2022-08-17T02:32:08.766Z,90.26
2022-08-17T02:34:36.798Z,89.72
2022-08-17T02:37:04.837Z,89.65
2022-08-17T02:39:32.921Z,89.56
2022-08-17T02:42:05.077Z,89.27
2022-08-17T02:44:38.806Z,89.33
2022-08-17T02:47:09.002Z,89.23
2022-08-17T02:49:37.387Z,88.75
2022-08-17T02:52:07.071Z,88.45
2022-08-17T02:54:41.340Z,88.51
2022-08-17T02:57:10.576Z,88.73
2022-08-17T02:59:41.628Z,88.77
2022-08-17T03:02:13.038Z,88.57
2022-08-17T03:04:41.126Z,88.51
2022-08-17T03:07:09.142Z,87.73
2022-08-17T03:09:37.241Z,87.97
2022-08-17T03:12:07.456Z,88.44
2022-08-17T03:14:41.443Z,88.54
2022-08-17T03:17:11.337Z,89.04
2022-08-17T03:19:45.435Z,89.06
2022-08-17T03:22:34.737Z,88.72
2022-08-17T03:25:01.495Z,88.77
2022-08-17T03:27:30.269Z,88.99
2022-08-17T03:29:59.617Z,89.82
2022-08-17T03:32:27.609Z,89.58
2022-08-17T03:34:59.611Z,89.90
2022-08-17T03:37:27.718Z,90.37
2022-08-17T03:39:55.817Z,90.69
2022-08-17T03:42:32.225Z,90.86
2022-08-17T03:45:03.485Z,90.76
2022-08-17T03:47:48.878Z,89.43
2022-08-17T03:50:34.514Z,89.94
2022-08-17T03:53:23.331Z,90.66
2022-08-17T03:56:08.827Z,91.31
2022-08-17T03:58:37.493Z,91.29
2022-08-17T04:01:08.165Z,92.00
2022-08-17T04:03:36.818Z,92.37
2022-08-17T04:06:05.653Z,92.26
2022-08-17T04:08:33.957Z,92.23
2022-08-17T04:11:02.350Z,92.42
2022-08-17T04:13:30.560Z,92.41
2022-08-17T04:15:59.333Z,92.83
2022-08-17T04:18:28.851Z,92.35
2022-08-17T04:20:58.021Z,92.16
2022-08-17T04:23:32.798Z,92.41
2022-08-17T04:26:02.118Z,92.74
2022-08-17T04:28:31.179Z,92.34
2022-08-17T04:30:59.267Z,91.80
2022-08-17T04:33:31.100Z,91.77
2022-08-17T04:36:01.852Z,91.66
2022-08-17T04:38:31.980Z,91.18
2022-08-17T04:41:18.326Z,90.39
2022-08-17T04:43:48.812Z,89.20
2022-08-17T04:46:18.426Z,88.13
2022-08-17T04:48:49.651Z,88.07
2022-08-17T04:51:19.670Z,87.44
2022-08-17T04:53:54.120Z,87.52
2022-08-17T04:56:25.170Z,86.09
2022-08-17T04:58:55.772Z,83.28
2022-08-17T05:01:25.433Z,82.36
2022-08-17T05:03:56.545Z,81.65
2022-08-17T05:06:25.254Z,78.99
2022-08-17T05:08:54.063Z,80.71
2022-08-17T05:11:22.566Z,76.77
2022-08-17T05:13:51.218Z,78.51
2022-08-17T05:16:20.714Z,74.55
2022-08-17T05:18:49.119Z,75.45
2022-08-17T05:21:19.884Z,74.24
2022-08-17T05:23:53.903Z,73.79
2022-08-17T05:26:26.845Z,71.58
2022-08-17T05:28:59.481Z,69.61
2022-08-17T05:31:29.826Z,68.60
2022-08-17T05:33:58.493Z,67.96
2022-08-17T05:36:41.565Z,68.78
2022-08-17T05:39:16.082Z,66.10
2022-08-17T05:41:44.744Z,66.81
2022-08-17T05:44:12.834Z,64.59
2022-08-17T05:46:44.722Z,62.68
2022-08-17T05:49:16.009Z,60.32
2022-08-17T05:52:07.291Z,58.90
2022-08-17T05:54:45.328Z,62.79
2022-08-17T05:57:53.511Z,60.70
2022-08-17T06:00:30.693Z,60.00
2022-08-17T06:03:20.132Z,58.69
2022-08-17T06:06:01.415Z,57.70
2022-08-17T06:08:38.169Z,59.14
2022-08-17T06:11:16.904Z,59.26
2022-08-17T06:14:04.332Z,56.28
2022-08-17T06:16:37.463Z,56.15
2022-08-17T06:19:07.766Z,54.07
2022-08-17T06:21:40.528Z,55.42
2022-08-17T06:24:29.255Z,54.61
2022-08-17T06:27:03.118Z,53.66
2022-08-17T06:29:39.962Z,53.83
2022-08-17T06:32:12.644Z,54.06
2022-08-17T06:34:42.821Z,53.69
2022-08-17T06:37:28.824Z,52.28
2022-08-17T06:40:13.692Z,49.93
2022-08-17T06:42:54.619Z,50.03
2022-08-17T06:45:39.150Z,52.06
2022-08-17T06:48:13.982Z,49.09
2022-08-17T06:50:49.047Z,51.57
2022-08-17T06:53:25.911Z,50.27
2022-08-17T06:56:01.498Z,49.55
2022-08-17T06:58:31.624Z,48.31
2022-08-17T07:01:06.983Z,47.42
2022-08-17T07:03:40.825Z,48.34
2022-08-17T07:06:13.878Z,46.95
2022-08-17T07:08:46.159Z,47.22
2022-08-17T07:11:19.391Z,47.46
2022-08-17T07:13:55.726Z,45.69
2022-08-17T07:16:27.558Z,47.68
2022-08-17T07:18:58.024Z,47.50
2022-08-17T07:21:40.954Z,45.44
2022-08-17T07:24:30.064Z,46.28
2022-08-17T07:27:09.409Z,43.07
2022-08-17T07:29:41.865Z,45.04
2022-08-17T07:32:12.554Z,43.54
2022-08-17T07:35:16.250Z,41.80
2022-08-17T07:37:53.264Z,44.10
2022-08-17T07:40:27.097Z,42.42
2022-08-17T07:43:14.031Z,43.45
2022-08-17T07:46:32.371Z,42.63
2022-08-17T07:49:20.151Z,42.77
2022-08-17T07:52:47.612Z,42.31
2022-08-17T07:54:52.023Z,41.81
2022-08-17T07:57:35.683Z,40.46
2022-08-17T08:00:32.302Z,39.24
2022-08-17T08:03:16.111Z,39.87
2022-08-17T08:05:54.515Z,41.00
2022-08-17T08:08:28.309Z,40.58
2022-08-17T08:11:03.537Z,39.88
2022-08-17T08:13:33.363Z,40.82
2022-08-17T08:16:24.500Z,40.61
2022-08-17T08:18:57.214Z,38.94
2022-08-17T08:21:47.406Z,39.70
2022-08-17T08:24:49.517Z,38.87
2022-08-17T08:27:32.028Z,38.23
2022-08-17T08:30:06.546Z,39.40
2022-08-17T08:32:50.389Z,38.20
2022-08-17T08:35:26.935Z,38.35
2022-08-17T08:38:07.643Z,37.37
2022-08-17T08:40:51.853Z,37.75
2022-08-17T08:43:28.318Z,39.18
2022-08-17T08:46:06.106Z,37.48
2022-08-17T08:49:10.176Z,38.33
2022-08-17T08:51:53.103Z,38.41
2022-08-17T08:54:39.583Z,38.02
2022-08-17T08:57:30.747Z,36.18
2022-08-17T09:00:12.910Z,36.90
2022-08-17T09:03:03.767Z,37.12
2022-08-17T09:05:49.049Z,34.45
2022-08-17T09:08:25.475Z,34.41
2022-08-17T09:11:01.022Z,36.23
2022-08-17T09:13:40.503Z,36.25
2022-08-17T09:16:15.395Z,35.39
2022-08-17T09:19:00.068Z,35.29
2022-08-17T09:21:47.988Z,34.05
2022-08-17T09:24:24.274Z,33.45
2022-08-17T09:26:59.136Z,32.49
2022-08-17T09:29:35.334Z,34.37
2022-08-17T09:32:06.458Z,33.82
2022-08-17T09:34:39.734Z,34.78
2022-08-17T09:37:24.381Z,32.58
2022-08-17T09:40:04.244Z,33.80
2022-08-17T09:42:38.921Z,31.79
2022-08-17T09:45:18.154Z,32.57
2022-08-17T09:47:51.510Z,32.80
2022-08-17T09:51:03.266Z,31.84
2022-08-17T09:53:16.827Z,32.87
2022-08-17T09:56:07.061Z,33.16
2022-08-17T09:58:51.295Z,33.30
2022-08-17T10:01:36.849Z,32.21
2022-08-17T10:04:29.295Z,32.22
2022-08-17T10:07:03.329Z,31.90
2022-08-17T10:09:43.774Z,31.34
2022-08-17T10:12:29.842Z,31.81
2022-08-17T10:15:09.790Z,32.14
2022-08-17T10:17:44.246Z,31.54
2022-08-17T10:20:17.166Z,30.40
2022-08-17T10:23:05.535Z,30.86
2022-08-17T10:25:56.185Z,29.75
2022-08-17T10:28:30.201Z,32.67
2022-08-17T10:31:34.137Z,32.12
2022-08-17T10:34:09.554Z,31.94
2022-08-17T10:36:49.612Z,30.93
2022-08-17T10:39:30.694Z,29.24
2022-08-17T10:42:13.943Z,31.97
2022-08-17T10:45:03.054Z,31.19
2022-08-17T10:48:06.259Z,31.75
2022-08-17T10:50:49.576Z,30.47
2022-08-17T10:53:51.091Z,30.41
2022-08-17T10:56:21.875Z,30.24
2022-08-17T10:58:54.087Z,29.52
2022-08-17T11:01:45.428Z,28.99
2022-08-17T11:04:31.234Z,30.49
2022-08-17T11:07:10.072Z,30.51
2022-08-17T11:09:56.278Z,29.05
2022-08-17T11:12:37.687Z,29.03
2022-08-17T11:15:19.704Z,31.98
2022-08-17T11:18:02.300Z,31.79
2022-08-17T11:21:11.150Z,29.94
2022-08-17T11:24:14.754Z,29.34
2022-08-17T11:26:48.921Z,27.61
2022-08-17T11:29:25.730Z,27.57
2022-08-17T11:32:08.088Z,27.19
2022-08-17T11:34:41.070Z,27.41
2022-08-17T11:37:42.910Z,28.80
2022-08-17T11:40:29.025Z,30.34
2022-08-17T11:43:14.703Z,28.52
2022-08-17T11:46:05.475Z,29.38
2022-08-17T11:48:57.284Z,28.71
2022-08-17T11:51:46.590Z,29.84
2022-08-17T11:54:41.106Z,29.31
2022-08-17T11:57:54.627Z,29.10
2022-08-17T12:00:51.959Z,28.57
2022-08-17T12:03:27.529Z,27.92
2022-08-17T12:06:07.075Z,30.45
2022-08-17T12:08:43.600Z,29.63
2022-08-17T12:11:19.062Z,28.04
2022-08-17T12:14:08.302Z,30.04
2022-08-17T12:16:36.335Z,29.84
2022-08-17T12:19:06.146Z,28.78
2022-08-17T12:21:46.327Z,29.81
2022-08-17T12:24:29.323Z,29.18
2022-08-17T12:26:59.659Z,29.19
2022-08-17T12:29:35.915Z,30.03
2022-08-17T12:32:14.575Z,29.41
2022-08-17T12:34:45.442Z,28.31
2022-08-17T12:37:20.021Z,27.17
2022-08-17T12:39:59.831Z,27.61
2022-08-17T12:42:31.224Z,28.60
2022-08-17T12:44:59.939Z,28.22
2022-08-17T12:47:30.478Z,28.90
2022-08-17T12:50:29.539Z,29.07
2022-08-17T12:53:02.215Z,28.79
2022-08-17T12:55:36.766Z,28.10
2022-08-17T12:58:05.705Z,26.75
2022-08-17T13:00:35.934Z,28.60
2022-08-17T13:03:07.881Z,28.02
2022-08-17T13:05:40.087Z,29.38
2022-08-17T13:08:17.994Z,30.02
2022-08-17T13:10:56.619Z,31.76
2022-08-17T13:13:26.863Z,30.01
2022-08-17T13:15:58.580Z,30.97
2022-08-17T13:18:39.140Z,27.61
2022-08-17T13:21:08.637Z,28.62
2022-08-17T13:23:38.867Z,29.31
2022-08-17T13:26:17.300Z,28.46
2022-08-17T13:28:50.028Z,27.83
2022-08-17T13:31:33.092Z,30.09
2022-08-17T13:34:32.062Z,29.95
2022-08-17T13:37:36.029Z,28.50
2022-08-17T13:40:36.849Z,26.73
2022-08-17T13:43:05.600Z,29.49
2022-08-17T13:45:39.245Z,26.55
2022-08-17T13:48:11.938Z,27.76
2022-08-17T13:50:45.144Z,29.77
2022-08-17T13:53:24.602Z,27.60
2022-08-17T13:55:59.638Z,29.83
2022-08-17T13:58:33.773Z,29.57
2022-08-17T14:01:31.506Z,29.55
2022-08-17T14:04:02.205Z,30.37
2022-08-17T14:06:51.838Z,29.55
2022-08-17T14:09:25.022Z,30.01
2022-08-17T14:11:56.229Z,31.30
2022-08-17T14:14:24.600Z,31.37
2022-08-17T14:16:54.086Z,31.98
2022-08-17T14:19:23.045Z,31.51
2022-08-17T14:21:58.979Z,32.46
2022-08-17T14:24:32.784Z,32.17
2022-08-17T14:27:04.130Z,33.15
2022-08-17T14:29:34.403Z,33.29
2022-08-17T14:32:08.102Z,34.62
2022-08-17T14:34:36.290Z,31.91
2022-08-17T14:37:04.394Z,36.42
2022-08-17T14:39:32.964Z,37.05
2022-08-17T14:42:03.420Z,36.87
2022-08-17T14:44:31.586Z,32.18
2022-08-17T14:46:59.785Z,34.23
2022-08-17T14:49:28.406Z,35.07
2022-08-17T14:51:56.493Z,32.40
2022-08-17T14:54:33.710Z,32.67
2022-08-17T14:57:23.419Z,32.27
2022-08-17T14:59:55.213Z,30.25
2022-08-17T15:02:29.260Z,32.95
2022-08-17T15:05:00.945Z,31.77
2022-08-17T15:07:30.789Z,32.56
2022-08-17T15:10:01.247Z,31.95
2022-08-17T15:12:34.239Z,29.26
2022-08-17T15:15:04.601Z,31.02
2022-08-17T15:17:45.043Z,30.39
2022-08-17T15:20:16.491Z,30.98
2022-08-17T15:22:45.769Z,32.58
2022-08-17T15:25:15.439Z,31.95
2022-08-17T15:27:45.112Z,33.26
2022-08-17T15:30:15.226Z,32.57
2022-08-17T15:32:50.582Z,32.65
2022-08-17T15:35:28.197Z,33.19
2022-08-17T15:37:58.220Z,34.04
2022-08-17T15:40:26.315Z,33.51
2022-08-17T15:42:57.937Z,33.37
2022-08-17T15:45:28.378Z,34.47
2022-08-17T15:47:56.850Z,35.58
2022-08-17T15:50:25.093Z,36.96
2022-08-17T15:52:58.642Z,36.37
2022-08-17T15:55:28.376Z,35.99
2022-08-17T15:57:57.948Z,35.48
2022-08-17T16:00:26.144Z,36.71
2022-08-17T16:03:44.761Z,35.55
2022-08-17T16:05:42.600Z,36.50
2022-08-17T16:08:11.196Z,35.78
2022-08-17T16:10:39.582Z,36.93
2022-08-17T16:13:17.980Z,37.09
2022-08-17T16:15:53.049Z,37.98
2022-08-17T16:18:26.083Z,38.38
2022-08-17T16:20:55.089Z,39.23
2022-08-17T16:23:23.554Z,40.07
2022-08-17T16:25:53.566Z,39.85
2022-08-17T16:28:27.482Z,40.59
2022-08-17T16:31:07.913Z,40.31
2022-08-17T16:33:37.494Z,40.17
2022-08-17T16:36:06.273Z,41.36
2022-08-17T16:38:34.410Z,40.94
2022-08-17T16:41:02.642Z,41.85
2022-08-17T16:43:32.336Z,41.79
2022-08-17T16:46:01.439Z,42.15
2022-08-17T16:48:30.023Z,42.29
2022-08-17T16:51:03.418Z,42.72
2022-08-17T16:53:33.202Z,43.74
2022-08-17T16:56:01.307Z,43.29
2022-08-17T16:58:30.242Z,45.93
2022-08-17T17:00:59.993Z,46.84
2022-08-17T17:03:30.487Z,48.92
2022-08-17T17:06:13.726Z,49.46
2022-08-17T17:08:44.963Z,49.70
2022-08-17T17:11:17.983Z,50.66
2022-08-17T17:13:48.600Z,49.88
2022-08-17T17:16:35.871Z,49.29
2022-08-17T17:19:10.873Z,47.76
2022-08-17T17:21:44.870Z,47.44
2022-08-17T17:24:18.943Z,49.10
2022-08-17T17:27:01.615Z,49.58
2022-08-17T17:29:48.822Z,50.21
2022-08-17T17:32:23.470Z,50.06
2022-08-17T17:34:56.251Z,51.17
2022-08-17T17:37:30.224Z,51.09
2022-08-17T17:40:02.863Z,52.22
2022-08-17T17:42:33.274Z,52.04
2022-08-17T17:45:08.707Z,53.30
2022-08-17T17:47:38.438Z,53.86
2022-08-17T17:50:08.150Z,53.78
2022-08-17T17:52:45.458Z,53.44
2022-08-17T17:55:24.641Z,54.54
2022-08-17T17:58:03.006Z,54.24
2022-08-17T18:00:38.944Z,54.11
2022-08-17T18:03:22.083Z,54.76
2022-08-17T18:06:05.411Z,54.96
2022-08-17T18:08:45.087Z,55.19
2022-08-17T18:11:24.531Z,56.86
2022-08-17T18:14:14.692Z,54.66
2022-08-17T18:16:43.837Z,54.64
2022-08-17T18:19:15.735Z,55.57
2022-08-17T18:21:47.382Z,57.38
2022-08-17T18:24:15.719Z,57.71
2022-08-17T18:26:50.531Z,58.79
2022-08-17T18:29:31.784Z,59.42
2022-08-17T18:32:19.271Z,60.47
2022-08-17T18:34:50.641Z,61.32
2022-08-17T18:37:32.961Z,59.97
2022-08-17T18:40:02.467Z,60.37
2022-08-17T18:42:32.237Z,60.57
2022-08-17T18:45:00.302Z,60.37
2022-08-17T18:47:29.691Z,59.12
2022-08-17T18:50:25.031Z,57.52
2022-08-17T18:52:55.287Z,58.04
2022-08-17T18:55:27.895Z,58.22
2022-08-17T18:57:58.812Z,57.63
2022-08-17T19:00:36.702Z,56.96
2022-08-17T19:03:19.960Z,55.95
2022-08-17T19:05:53.295Z,56.46
2022-08-17T19:08:22.940Z,57.54
2022-08-17T19:10:54.258Z,59.17
2022-08-17T19:13:29.754Z,59.75
2022-08-17T19:16:11.410Z,59.42
2022-08-17T19:18:47.630Z,60.33
2022-08-17T19:21:22.651Z,61.54
2022-08-17T19:23:55.618Z,62.27
2022-08-17T19:26:53.637Z,61.49
2022-08-17T19:29:27.216Z,62.14
2022-08-17T19:31:56.306Z,62.79
2022-08-17T19:34:33.357Z,62.62
2022-08-17T19:37:21.621Z,61.49
2022-08-17T19:39:56.426Z,61.27
2022-08-17T19:42:34.716Z,62.18
2022-08-17T19:45:13.087Z,63.90
2022-08-17T19:47:55.399Z,64.84
2022-08-17T19:50:38.475Z,63.77
2022-08-17T19:53:18.568Z,63.94
2022-08-17T19:55:55.085Z,65.63
2022-08-17T19:58:36.573Z,66.02
2022-08-17T20:01:08.512Z,65.34
2022-08-17T20:03:42.411Z,65.18
2022-08-17T20:06:14.039Z,65.98
2022-08-17T20:08:54.986Z,66.51
2022-08-17T20:11:29.608Z,67.25
2022-08-17T20:14:04.483Z,67.75
2022-08-17T20:16:34.345Z,66.70
2022-08-17T20:19:06.245Z,65.13
2022-08-17T20:21:40.211Z,64.79
2022-08-17T20:24:21.092Z,64.24
2022-08-17T20:26:58.447Z,65.64
2022-08-17T20:29:40.059Z,68.40
2022-08-17T20:32:22.106Z,67.80
2022-08-17T20:35:01.123Z,67.15
2022-08-17T20:37:34.403Z,66.46
2022-08-17T20:40:23.047Z,67.10
2022-08-17T20:42:51.080Z,67.42
2022-08-17T20:45:58.938Z,67.33
2022-08-17T20:48:38.455Z,68.15
2022-08-17T20:51:26.037Z,68.80
2022-08-17T20:54:30.380Z,67.75
2022-08-17T20:57:01.053Z,67.37
2022-08-17T20:59:57.708Z,68.30
2022-08-17T21:02:28.965Z,70.43
2022-08-17T21:05:08.090Z,70.80
2022-08-17T21:07:59.050Z,70.98
2022-08-17T21:10:37.335Z,70.86
2022-08-17T21:13:56.108Z,71.32
2022-08-17T21:16:33.818Z,72.02
2022-08-17T21:19:16.981Z,72.12
2022-08-17T21:21:58.362Z,71.74
2022-08-17T21:24:36.627Z,72.72
2022-08-17T21:27:14.124Z,72.92
2022-08-17T21:29:54.318Z,72.92
2022-08-17T21:32:31.461Z,73.25
2022-08-17T21:35:23.261Z,73.69
2022-08-17T21:37:54.925Z,74.67
2022-08-17T21:40:26.751Z,75.49
2022-08-17T21:42:58.359Z,75.08
2022-08-17T21:45:30.292Z,76.19
2022-08-17T21:48:14.196Z,76.04
2022-08-17T21:50:45.886Z,76.04
2022-08-17T21:53:25.375Z,75.91
2022-08-17T21:55:55.174Z,75.28
2022-08-17T21:58:30.501Z,75.19
2022-08-17T22:01:22.380Z,74.84
2022-08-17T22:04:01.849Z,74.80
2022-08-17T22:06:34.740Z,74.05
2022-08-17T22:09:08.322Z,74.51
2022-08-17T22:11:48.370Z,75.62
2022-08-17T22:14:18.606Z,75.45
2022-08-17T22:16:50.747Z,75.03
2022-08-17T22:19:21.197Z,74.52
2022-08-17T22:21:49.326Z,74.07
2022-08-17T22:24:21.579Z,73.95
2022-08-17T22:27:02.997Z,73.89
2022-08-17T22:29:57.797Z,73.75
2022-08-17T22:32:42.648Z,75.30
2022-08-17T22:35:26.115Z,76.56
2022-08-17T22:37:54.167Z,76.27
2022-08-17T22:40:27.358Z,76.61
2022-08-17T22:42:57.284Z,77.60
2022-08-17T22:45:26.001Z,77.87
2022-08-17T22:47:56.667Z,77.92
2022-08-17T22:50:30.520Z,78.06
2022-08-17T22:53:19.672Z,78.88
2022-08-17T22:56:09.795Z,78.94
2022-08-17T22:59:02.234Z,78.24
2022-08-17T23:01:32.673Z,78.22
2022-08-17T23:04:03.022Z,77.96
2022-08-17T23:06:33.955Z,78.56
2022-08-17T23:09:04.288Z,78.77
2022-08-17T23:11:49.547Z,79.64
2022-08-17T23:14:19.921Z,79.73
2022-08-17T23:16:48.804Z,80.16
2022-08-17T23:19:18.893Z,80.28
2022-08-17T23:21:52.674Z,80.17
2022-08-17T23:24:25.418Z,81.34
2022-08-17T23:26:53.976Z,80.98
2022-08-17T23:29:22.632Z,81.13
2022-08-17T23:31:51.838Z,81.11
2022-08-17T23:34:20.387Z,81.03
2022-08-17T23:36:52.698Z,81.62
2022-08-17T23:39:24.723Z,82.13
2022-08-17T23:41:56.411Z,81.47
2022-08-17T23:44:24.637Z,81.71
2022-08-17T23:46:53.317Z,82.57
2022-08-17T23:49:21.370Z,83.03
2022-08-17T23:51:50.843Z,83.26
2022-08-17T23:54:23.941Z,83.82
2022-08-17T23:56:52.055Z,84.20
2022-08-17T23:59:22.594Z,84.36
